sensor_id;sensor_type;location;lat;lon;timestamp;P1;durP1;ratioP1;P2;durP2;ratioP2
21297;SDS011;10808;48.010;11.326;2022-08-14T00:00:50;4.20;;;3.17;;
21297;SDS011;10808;48.010;11.326;2022-08-14T00:03:18;3.55;;;3.25;;
21297;SDS011;10808;48.010;11.326;2022-08-14T00:05:46;3.72;;;3.40;;
21297;SDS011;10808;48.010;11.326;2022-08-14T00:08:12;4.18;;;3.28;;
21297;SDS011;10808;48.010;11.326;2022-08-14T00:10:38;3.78;;;3.40;;
21297;SDS011;10808;48.010;11.326;2022-08-14T00:13:05;4.03;;;3.63;;
21297;SDS011;10808;48.010;11.326;2022-08-14T00:15:37;4.10;;;3.53;;
21297;SDS011;10808;48.010;11.326;2022-08-14T00:18:06;3.90;;;3.50;;
21297;SDS011;10808;48.010;11.326;2022-08-14T00:20:34;4.20;;;3.80;;
21297;SDS011;10808;48.010;11.326;2022-08-14T00:23:03;4.10;;;3.58;;
21297;SDS011;10808;48.010;11.326;2022-08-14T00:25:31;4.65;;;3.63;;
21297;SDS011;10808;48.010;11.326;2022-08-14T00:27:58;4.10;;;3.70;;
21297;SDS011;10808;48.010;11.326;2022-08-14T00:30:24;4.50;;;3.42;;
21297;SDS011;10808;48.010;11.326;2022-08-14T00:32:50;6.07;;;3.85;;
21297;SDS011;10808;48.010;11.326;2022-08-14T00:35:16;4.18;;;3.75;;
21297;SDS011;10808;48.010;11.326;2022-08-14T00:37:43;3.83;;;3.53;;
21297;SDS011;10808;48.010;11.326;2022-08-14T00:40:11;4.20;;;3.50;;
21297;SDS011;10808;48.010;11.326;2022-08-14T00:42:40;3.78;;;3.35;;
21297;SDS011;10808;48.010;11.326;2022-08-14T00:45:08;4.30;;;3.70;;
21297;SDS011;10808;48.010;11.326;2022-08-14T00:47:35;5.90;;;3.55;;
21297;SDS011;10808;48.010;11.326;2022-08-14T00:50:03;3.80;;;3.50;;
21297;SDS011;10808;48.010;11.326;2022-08-14T00:52:31;4.07;;;3.67;;
21297;SDS011;10808;48.010;11.326;2022-08-14T00:54:58;4.00;;;3.70;;
21297;SDS011;10808;48.010;11.326;2022-08-14T00:57:26;4.22;;;3.70;;
21297;SDS011;10808;48.010;11.326;2022-08-14T00:59:54;6.00;;;3.88;;
21297;SDS011;10808;48.010;11.326;2022-08-14T01:02:22;4.40;;;4.00;;
21297;SDS011;10808;48.010;11.326;2022-08-14T01:04:58;4.15;;;3.75;;
21297;SDS011;10808;48.010;11.326;2022-08-14T01:07:25;5.03;;;3.90;;
21297;SDS011;10808;48.010;11.326;2022-08-14T01:09:56;4.00;;;3.50;;
21297;SDS011;10808;48.010;11.326;2022-08-14T01:12:29;3.70;;;3.40;;
21297;SDS011;10808;48.010;11.326;2022-08-14T01:14:57;3.72;;;3.35;;
21297;SDS011;10808;48.010;11.326;2022-08-14T01:17:25;4.35;;;3.80;;
21297;SDS011;10808;48.010;11.326;2022-08-14T01:20:11;4.23;;;3.83;;
21297;SDS011;10808;48.010;11.326;2022-08-14T01:22:56;4.45;;;3.80;;
21297;SDS011;10808;48.010;11.326;2022-08-14T01:25:22;4.78;;;3.72;;
21297;SDS011;10808;48.010;11.326;2022-08-14T01:27:49;4.10;;;3.70;;
21297;SDS011;10808;48.010;11.326;2022-08-14T01:30:15;4.10;;;3.80;;
21297;SDS011;10808;48.010;11.326;2022-08-14T01:32:43;4.20;;;3.80;;
21297;SDS011;10808;48.010;11.326;2022-08-14T01:35:10;4.00;;;3.60;;
21297;SDS011;10808;48.010;11.326;2022-08-14T01:37:36;4.82;;;3.90;;
21297;SDS011;10808;48.010;11.326;2022-08-14T01:40:03;5.53;;;3.60;;
21297;SDS011;10808;48.010;11.326;2022-08-14T01:42:29;4.30;;;3.80;;
21297;SDS011;10808;48.010;11.326;2022-08-14T01:44:55;4.77;;;4.17;;
21297;SDS011;10808;48.010;11.326;2022-08-14T01:47:22;4.30;;;3.80;;
21297;SDS011;10808;48.010;11.326;2022-08-14T01:49:50;4.13;;;3.72;;
21297;SDS011;10808;48.010;11.326;2022-08-14T01:52:18;4.45;;;3.95;;
21297;SDS011;10808;48.010;11.326;2022-08-14T01:54:46;4.30;;;3.90;;
21297;SDS011;10808;48.010;11.326;2022-08-14T01:57:12;4.32;;;3.92;;
21297;SDS011;10808;48.010;11.326;2022-08-14T01:59:38;4.00;;;3.70;;
21297;SDS011;10808;48.010;11.326;2022-08-14T02:02:08;4.38;;;3.97;;
21297;SDS011;10808;48.010;11.326;2022-08-14T02:04:38;4.40;;;4.00;;
21297;SDS011;10808;48.010;11.326;2022-08-14T02:07:05;4.43;;;3.97;;
21297;SDS011;10808;48.010;11.326;2022-08-14T02:09:34;4.13;;;3.78;;
21297;SDS011;10808;48.010;11.326;2022-08-14T02:12:04;5.32;;;4.10;;
21297;SDS011;10808;48.010;11.326;2022-08-14T02:14:31;5.63;;;4.30;;
21297;SDS011;10808;48.010;11.326;2022-08-14T02:16:58;4.40;;;4.00;;
21297;SDS011;10808;48.010;11.326;2022-08-14T02:19:26;4.75;;;4.25;;
21297;SDS011;10808;48.010;11.326;2022-08-14T02:21:56;4.10;;;3.70;;
21297;SDS011;10808;48.010;11.326;2022-08-14T02:24:25;4.82;;;4.07;;
21297;SDS011;10808;48.010;11.326;2022-08-14T02:26:54;4.43;;;4.00;;
21297;SDS011;10808;48.010;11.326;2022-08-14T02:29:23;5.10;;;4.20;;
21297;SDS011;10808;48.010;11.326;2022-08-14T02:31:52;4.38;;;3.97;;
21297;SDS011;10808;48.010;11.326;2022-08-14T02:37:00;5.05;;;4.10;;
21297;SDS011;10808;48.010;11.326;2022-08-14T02:39:31;5.32;;;4.10;;
21297;SDS011;10808;48.010;11.326;2022-08-14T02:42:08;5.10;;;3.75;;
21297;SDS011;10808;48.010;11.326;2022-08-14T02:44:41;5.73;;;4.23;;
21297;SDS011;10808;48.010;11.326;2022-08-14T02:47:09;4.57;;;4.13;;
21297;SDS011;10808;48.010;11.326;2022-08-14T02:49:35;4.60;;;4.20;;
21297;SDS011;10808;48.010;11.326;2022-08-14T02:52:03;4.32;;;3.92;;
21297;SDS011;10808;48.010;11.326;2022-08-14T02:54:32;4.10;;;3.80;;
21297;SDS011;10808;48.010;11.326;2022-08-14T02:56:59;4.60;;;4.20;;
21297;SDS011;10808;48.010;11.326;2022-08-14T02:59:29;4.75;;;4.25;;
21297;SDS011;10808;48.010;11.326;2022-08-14T03:01:58;4.57;;;4.18;;
21297;SDS011;10808;48.010;11.326;2022-08-14T03:04:24;4.33;;;3.97;;
21297;SDS011;10808;48.010;11.326;2022-08-14T03:06:53;5.95;;;4.30;;
21297;SDS011;10808;48.010;11.326;2022-08-14T03:09:20;4.60;;;3.67;;
21297;SDS011;10808;48.010;11.326;2022-08-14T03:11:46;4.60;;;4.13;;
21297;SDS011;10808;48.010;11.326;2022-08-14T03:14:12;4.27;;;3.87;;
21297;SDS011;10808;48.010;11.326;2022-08-14T03:16:39;4.22;;;3.83;;
21297;SDS011;10808;48.010;11.326;2022-08-14T03:19:06;4.43;;;4.03;;
21297;SDS011;10808;48.010;11.326;2022-08-14T03:21:34;5.25;;;4.03;;
21297;SDS011;10808;48.010;11.326;2022-08-14T03:24:01;4.38;;;3.97;;
21297;SDS011;10808;48.010;11.326;2022-08-14T03:26:35;4.47;;;4.07;;
21297;SDS011;10808;48.010;11.326;2022-08-14T03:29:03;4.22;;;3.85;;
21297;SDS011;10808;48.010;11.326;2022-08-14T03:31:30;4.40;;;4.00;;
21297;SDS011;10808;48.010;11.326;2022-08-14T03:33:56;4.40;;;4.03;;
21297;SDS011;10808;48.010;11.326;2022-08-14T03:36:23;4.50;;;4.10;;
21297;SDS011;10808;48.010;11.326;2022-08-14T03:38:50;5.18;;;4.10;;
21297;SDS011;10808;48.010;11.326;2022-08-14T03:41:21;4.40;;;3.90;;
21297;SDS011;10808;48.010;11.326;2022-08-14T03:43:58;5.10;;;4.00;;
21297;SDS011;10808;48.010;11.326;2022-08-14T03:46:27;5.22;;;4.20;;
21297;SDS011;10808;48.010;11.326;2022-08-14T03:48:55;4.75;;;4.15;;
21297;SDS011;10808;48.010;11.326;2022-08-14T03:51:22;4.25;;;3.85;;
21297;SDS011;10808;48.010;11.326;2022-08-14T03:53:56;4.65;;;4.20;;
21297;SDS011;10808;48.010;11.326;2022-08-14T03:56:24;5.07;;;4.20;;
21297;SDS011;10808;48.010;11.326;2022-08-14T03:58:53;4.13;;;3.83;;
21297;SDS011;10808;48.010;11.326;2022-08-14T04:01:21;4.85;;;4.35;;
21297;SDS011;10808;48.010;11.326;2022-08-14T04:03:49;4.85;;;4.30;;
21297;SDS011;10808;48.010;11.326;2022-08-14T04:06:17;4.25;;;3.85;;
21297;SDS011;10808;48.010;11.326;2022-08-14T04:08:47;4.53;;;4.13;;
21297;SDS011;10808;48.010;11.326;2022-08-14T04:11:17;4.60;;;4.20;;
21297;SDS011;10808;48.010;11.326;2022-08-14T04:13:44;4.55;;;4.15;;
21297;SDS011;10808;48.010;11.326;2022-08-14T04:16:12;4.38;;;3.97;;
21297;SDS011;10808;48.010;11.326;2022-08-14T04:18:47;4.83;;;4.30;;
21297;SDS011;10808;48.010;11.326;2022-08-14T04:21:15;4.93;;;4.53;;
21297;SDS011;10808;48.010;11.326;2022-08-14T04:23:42;4.80;;;4.22;;
21297;SDS011;10808;48.010;11.326;2022-08-14T04:26:11;6.07;;;4.60;;
21297;SDS011;10808;48.010;11.326;2022-08-14T04:28:39;4.97;;;4.03;;
21297;SDS011;10808;48.010;11.326;2022-08-14T04:31:06;5.75;;;4.40;;
21297;SDS011;10808;48.010;11.326;2022-08-14T04:33:32;5.25;;;4.38;;
21297;SDS011;10808;48.010;11.326;2022-08-14T04:35:59;5.05;;;4.10;;
21297;SDS011;10808;48.010;11.326;2022-08-14T04:38:25;5.22;;;4.72;;
21297;SDS011;10808;48.010;11.326;2022-08-14T04:41:09;5.10;;;4.60;;
21297;SDS011;10808;48.010;11.326;2022-08-14T04:43:54;6.28;;;4.50;;
21297;SDS011;10808;48.010;11.326;2022-08-14T04:46:21;4.50;;;4.10;;
21297;SDS011;10808;48.010;11.326;2022-08-14T04:48:48;4.72;;;4.28;;
21297;SDS011;10808;48.010;11.326;2022-08-14T04:51:16;5.45;;;4.03;;
21297;SDS011;10808;48.010;11.326;2022-08-14T04:53:46;4.53;;;4.13;;
21297;SDS011;10808;48.010;11.326;2022-08-14T04:56:14;4.70;;;4.28;;
21297;SDS011;10808;48.010;11.326;2022-08-14T04:58:42;4.40;;;4.00;;
21297;SDS011;10808;48.010;11.326;2022-08-14T05:01:09;4.88;;;4.45;;
21297;SDS011;10808;48.010;11.326;2022-08-14T05:03:36;4.78;;;4.38;;
21297;SDS011;10808;48.010;11.326;2022-08-14T05:06:04;4.50;;;4.10;;
21297;SDS011;10808;48.010;11.326;2022-08-14T05:08:32;4.57;;;4.20;;
21297;SDS011;10808;48.010;11.326;2022-08-14T05:11:00;5.50;;;4.53;;
21297;SDS011;10808;48.010;11.326;2022-08-14T05:13:29;4.85;;;4.13;;
21297;SDS011;10808;48.010;11.326;2022-08-14T05:15:56;4.50;;;4.10;;
21297;SDS011;10808;48.010;11.326;2022-08-14T05:18:24;4.53;;;4.10;;
21297;SDS011;10808;48.010;11.326;2022-08-14T05:20:53;4.60;;;4.20;;
21297;SDS011;10808;48.010;11.326;2022-08-14T05:23:21;5.95;;;4.00;;
21297;SDS011;10808;48.010;11.326;2022-08-14T05:25:49;4.50;;;3.92;;
21297;SDS011;10808;48.010;11.326;2022-08-14T05:28:21;5.80;;;3.88;;
21297;SDS011;10808;48.010;11.326;2022-08-14T05:30:49;4.20;;;3.80;;
21297;SDS011;10808;48.010;11.326;2022-08-14T05:33:18;4.10;;;3.70;;
21297;SDS011;10808;48.010;11.326;2022-08-14T05:35:46;4.55;;;4.15;;
21297;SDS011;10808;48.010;11.326;2022-08-14T05:38:16;3.97;;;3.65;;
21297;SDS011;10808;48.010;11.326;2022-08-14T05:40:43;4.25;;;3.75;;
21297;SDS011;10808;48.010;11.326;2022-08-14T05:43:10;4.53;;;4.10;;
21297;SDS011;10808;48.010;11.326;2022-08-14T05:45:36;4.53;;;4.13;;
21297;SDS011;10808;48.010;11.326;2022-08-14T05:48:02;4.53;;;4.13;;
21297;SDS011;10808;48.010;11.326;2022-08-14T05:50:30;4.32;;;3.95;;
21297;SDS011;10808;48.010;11.326;2022-08-14T05:52:56;5.00;;;3.88;;
21297;SDS011;10808;48.010;11.326;2022-08-14T05:55:23;3.97;;;3.60;;
21297;SDS011;10808;48.010;11.326;2022-08-14T05:57:51;3.97;;;3.58;;
21297;SDS011;10808;48.010;11.326;2022-08-14T06:00:24;4.30;;;3.90;;
21297;SDS011;10808;48.010;11.326;2022-08-14T06:02:55;3.93;;;3.57;;
21297;SDS011;10808;48.010;11.326;2022-08-14T06:05:25;3.97;;;3.60;;
21297;SDS011;10808;48.010;11.326;2022-08-14T06:07:52;4.07;;;3.78;;
21297;SDS011;10808;48.010;11.326;2022-08-14T06:10:19;4.75;;;3.90;;
21297;SDS011;10808;48.010;11.326;2022-08-14T06:12:45;3.83;;;3.53;;
21297;SDS011;10808;48.010;11.326;2022-08-14T06:15:12;4.47;;;3.70;;
21297;SDS011;10808;48.010;11.326;2022-08-14T06:17:44;3.92;;;3.53;;
21297;SDS011;10808;48.010;11.326;2022-08-14T06:20:15;3.88;;;3.47;;
21297;SDS011;10808;48.010;11.326;2022-08-14T06:22:43;6.90;;;3.70;;
21297;SDS011;10808;48.010;11.326;2022-08-14T06:25:11;3.72;;;3.40;;
21297;SDS011;10808;48.010;11.326;2022-08-14T06:27:39;3.97;;;3.40;;
21297;SDS011;10808;48.010;11.326;2022-08-14T06:30:13;3.85;;;3.45;;
21297;SDS011;10808;48.010;11.326;2022-08-14T06:32:40;3.47;;;3.10;;
21297;SDS011;10808;48.010;11.326;2022-08-14T06:35:07;3.70;;;3.40;;
21297;SDS011;10808;48.010;11.326;2022-08-14T06:37:45;3.45;;;3.15;;
21297;SDS011;10808;48.010;11.326;2022-08-14T06:40:17;4.10;;;3.50;;
21297;SDS011;10808;48.010;11.326;2022-08-14T06:42:43;3.90;;;3.35;;
21297;SDS011;10808;48.010;11.326;2022-08-14T06:45:09;4.45;;;3.50;;
21297;SDS011;10808;48.010;11.326;2022-08-14T06:47:37;3.60;;;3.30;;
21297;SDS011;10808;48.010;11.326;2022-08-14T06:50:06;3.80;;;3.50;;
21297;SDS011;10808;48.010;11.326;2022-08-14T06:52:35;4.97;;;3.60;;
21297;SDS011;10808;48.010;11.326;2022-08-14T06:55:02;3.70;;;3.40;;
21297;SDS011;10808;48.010;11.326;2022-08-14T06:57:33;3.72;;;3.17;;
21297;SDS011;10808;48.010;11.326;2022-08-14T07:00:04;3.17;;;2.97;;
21297;SDS011;10808;48.010;11.326;2022-08-14T07:02:32;3.47;;;3.10;;
21297;SDS011;10808;48.010;11.326;2022-08-14T07:05:16;3.70;;;3.40;;
21297;SDS011;10808;48.010;11.326;2022-08-14T07:08:01;3.42;;;3.00;;
21297;SDS011;10808;48.010;11.326;2022-08-14T07:10:29;3.88;;;3.28;;
21297;SDS011;10808;48.010;11.326;2022-08-14T07:12:55;3.60;;;3.30;;
21297;SDS011;10808;48.010;11.326;2022-08-14T07:15:21;3.83;;;2.90;;
21297;SDS011;10808;48.010;11.326;2022-08-14T07:17:48;3.40;;;3.10;;
21297;SDS011;10808;48.010;11.326;2022-08-14T07:20:16;3.38;;;3.08;;
21297;SDS011;10808;48.010;11.326;2022-08-14T07:22:45;3.40;;;3.10;;
21297;SDS011;10808;48.010;11.326;2022-08-14T07:25:13;3.40;;;3.10;;
21297;SDS011;10808;48.010;11.326;2022-08-14T07:27:39;4.80;;;2.92;;
21297;SDS011;10808;48.010;11.326;2022-08-14T07:30:05;3.20;;;2.90;;
21297;SDS011;10808;48.010;11.326;2022-08-14T07:32:32;7.90;;;3.60;;
21297;SDS011;10808;48.010;11.326;2022-08-14T07:34:58;4.22;;;3.15;;
21297;SDS011;10808;48.010;11.326;2022-08-14T07:37:25;3.50;;;3.15;;
21297;SDS011;10808;48.010;11.326;2022-08-14T07:39:51;3.33;;;2.80;;
21297;SDS011;10808;48.010;11.326;2022-08-14T07:42:17;3.30;;;3.00;;
21297;SDS011;10808;48.010;11.326;2022-08-14T07:44:43;3.30;;;2.97;;
21297;SDS011;10808;48.010;11.326;2022-08-14T07:47:09;3.30;;;3.00;;
21297;SDS011;10808;48.010;11.326;2022-08-14T07:49:35;3.33;;;3.05;;
21297;SDS011;10808;48.010;11.326;2022-08-14T07:52:01;3.90;;;3.00;;
21297;SDS011;10808;48.010;11.326;2022-08-14T07:54:28;2.92;;;2.72;;
21297;SDS011;10808;48.010;11.326;2022-08-14T07:56:56;3.40;;;3.10;;
21297;SDS011;10808;48.010;11.326;2022-08-14T07:59:23;3.10;;;2.80;;
21297;SDS011;10808;48.010;11.326;2022-08-14T08:01:50;3.95;;;2.90;;
21297;SDS011;10808;48.010;11.326;2022-08-14T08:04:23;3.40;;;2.70;;
21297;SDS011;10808;48.010;11.326;2022-08-14T08:06:52;2.80;;;2.53;;
21297;SDS011;10808;48.010;11.326;2022-08-14T08:09:23;3.33;;;2.90;;
21297;SDS011;10808;48.010;11.326;2022-08-14T08:11:51;3.10;;;2.80;;
21297;SDS011;10808;48.010;11.326;2022-08-14T08:14:18;3.20;;;2.90;;
21297;SDS011;10808;48.010;11.326;2022-08-14T08:16:45;3.35;;;3.05;;
21297;SDS011;10808;48.010;11.326;2022-08-14T08:19:12;3.85;;;2.97;;
21297;SDS011;10808;48.010;11.326;2022-08-14T08:21:43;2.90;;;2.60;;
21297;SDS011;10808;48.010;11.326;2022-08-14T08:24:10;5.22;;;2.80;;
21297;SDS011;10808;48.010;11.326;2022-08-14T08:26:37;3.03;;;2.80;;
21297;SDS011;10808;48.010;11.326;2022-08-14T08:29:03;2.90;;;2.70;;
21297;SDS011;10808;48.010;11.326;2022-08-14T08:31:30;3.10;;;2.80;;
21297;SDS011;10808;48.010;11.326;2022-08-14T08:33:57;2.90;;;2.70;;
21297;SDS011;10808;48.010;11.326;2022-08-14T08:36:23;3.08;;;2.78;;
21297;SDS011;10808;48.010;11.326;2022-08-14T08:38:49;4.18;;;2.53;;
21297;SDS011;10808;48.010;11.326;2022-08-14T08:41:15;3.60;;;2.70;;
21297;SDS011;10808;48.010;11.326;2022-08-14T08:43:41;3.03;;;2.63;;
21297;SDS011;10808;48.010;11.326;2022-08-14T08:46:08;2.73;;;2.53;;
21297;SDS011;10808;48.010;11.326;2022-08-14T08:48:46;3.00;;;2.70;;
21297;SDS011;10808;48.010;11.326;2022-08-14T08:51:47;3.97;;;2.60;;
21297;SDS011;10808;48.010;11.326;2022-08-14T08:54:10;3.65;;;2.33;;
21297;SDS011;10808;48.010;11.326;2022-08-14T08:56:45;3.10;;;2.60;;
21297;SDS011;10808;48.010;11.326;2022-08-14T08:59:17;2.55;;;2.35;;
21297;SDS011;10808;48.010;11.326;2022-08-14T09:01:51;3.42;;;2.60;;
21297;SDS011;10808;48.010;11.326;2022-08-14T09:04:22;2.85;;;2.65;;
21297;SDS011;10808;48.010;11.326;2022-08-14T09:06:53;2.95;;;2.65;;
21297;SDS011;10808;48.010;11.326;2022-08-14T09:09:24;2.97;;;2.53;;
21297;SDS011;10808;48.010;11.326;2022-08-14T09:11:52;2.50;;;2.30;;
21297;SDS011;10808;48.010;11.326;2022-08-14T09:14:20;2.60;;;2.40;;
21297;SDS011;10808;48.010;11.326;2022-08-14T09:16:47;3.92;;;2.53;;
21297;SDS011;10808;48.010;11.326;2022-08-14T09:19:14;2.53;;;2.33;;
21297;SDS011;10808;48.010;11.326;2022-08-14T09:21:40;2.40;;;2.20;;
21297;SDS011;10808;48.010;11.326;2022-08-14T09:24:07;2.50;;;2.30;;
21297;SDS011;10808;48.010;11.326;2022-08-14T09:26:34;2.55;;;2.35;;
21297;SDS011;10808;48.010;11.326;2022-08-14T09:29:02;4.10;;;2.33;;
21297;SDS011;10808;48.010;11.326;2022-08-14T09:31:29;2.80;;;2.40;;
21297;SDS011;10808;48.010;11.326;2022-08-14T09:42:26;1.95;;;1.85;;
21297;SDS011;10808;48.010;11.326;2022-08-14T09:45:23;2.50;;;2.05;;
21297;SDS011;10808;48.010;11.326;2022-08-14T09:47:54;2.40;;;2.05;;
21297;SDS011;10808;48.010;11.326;2022-08-14T09:50:23;2.38;;;2.17;;
21297;SDS011;10808;48.010;11.326;2022-08-14T09:52:59;2.10;;;2.00;;
21297;SDS011;10808;48.010;11.326;2022-08-14T09:55:27;2.23;;;2.00;;
21297;SDS011;10808;48.010;11.326;2022-08-14T09:58:08;2.90;;;2.00;;
21297;SDS011;10808;48.010;11.326;2022-08-14T10:00:42;4.25;;;1.77;;
21297;SDS011;10808;48.010;11.326;2022-08-14T10:03:23;2.22;;;2.00;;
21297;SDS011;10808;48.010;11.326;2022-08-14T10:06:08;3.85;;;2.20;;
21297;SDS011;10808;48.010;11.326;2022-08-14T10:11:33;3.22;;;2.25;;
21297;SDS011;10808;48.010;11.326;2022-08-14T10:14:16;2.08;;;1.88;;
21297;SDS011;10808;48.010;11.326;2022-08-14T10:16:50;2.30;;;2.10;;
21297;SDS011;10808;48.010;11.326;2022-08-14T10:19:20;3.63;;;2.15;;
21297;SDS011;10808;48.010;11.326;2022-08-14T10:21:57;2.00;;;1.90;;
21297;SDS011;10808;48.010;11.326;2022-08-14T10:24:32;3.42;;;2.30;;
21297;SDS011;10808;48.010;11.326;2022-08-14T10:27:12;2.65;;;1.92;;
21297;SDS011;10808;48.010;11.326;2022-08-14T10:29:52;2.20;;;2.00;;
21297;SDS011;10808;48.010;11.326;2022-08-14T10:32:26;2.22;;;2.03;;
21297;SDS011;10808;48.010;11.326;2022-08-14T10:35:02;3.15;;;2.00;;
21297;SDS011;10808;48.010;11.326;2022-08-14T10:37:41;2.55;;;1.90;;
21297;SDS011;10808;48.010;11.326;2022-08-14T10:40:12;2.13;;;1.92;;
21297;SDS011;10808;48.010;11.326;2022-08-14T10:42:40;2.20;;;2.00;;
21297;SDS011;10808;48.010;11.326;2022-08-14T10:45:50;1.90;;;1.80;;
21297;SDS011;10808;48.010;11.326;2022-08-14T10:48:00;2.28;;;2.08;;
21297;SDS011;10808;48.010;11.326;2022-08-14T10:50:39;2.25;;;1.88;;
21297;SDS011;10808;48.010;11.326;2022-08-14T10:53:10;1.70;;;1.60;;
21297;SDS011;10808;48.010;11.326;2022-08-14T10:55:37;1.80;;;1.70;;
21297;SDS011;10808;48.010;11.326;2022-08-14T10:58:05;2.50;;;1.80;;
21297;SDS011;10808;48.010;11.326;2022-08-14T11:00:39;1.90;;;1.80;;
21297;SDS011;10808;48.010;11.326;2022-08-14T11:03:07;1.70;;;1.60;;
21297;SDS011;10808;48.010;11.326;2022-08-14T11:05:41;5.10;;;1.90;;
21297;SDS011;10808;48.010;11.326;2022-08-14T11:08:12;1.77;;;1.67;;
21297;SDS011;10808;48.010;11.326;2022-08-14T11:10:53;2.00;;;1.90;;
21297;SDS011;10808;48.010;11.326;2022-08-14T11:13:22;2.05;;;1.80;;
21297;SDS011;10808;48.010;11.326;2022-08-14T11:15:52;1.90;;;1.80;;
21297;SDS011;10808;48.010;11.326;2022-08-14T11:18:20;3.30;;;1.80;;
21297;SDS011;10808;48.010;11.326;2022-08-14T11:20:48;2.10;;;1.83;;
21297;SDS011;10808;48.010;11.326;2022-08-14T11:23:19;2.22;;;1.70;;
21297;SDS011;10808;48.010;11.326;2022-08-14T11:25:53;1.80;;;1.70;;
21297;SDS011;10808;48.010;11.326;2022-08-14T11:28:23;2.33;;;1.73;;
21297;SDS011;10808;48.010;11.326;2022-08-14T11:30:51;2.80;;;1.80;;
21297;SDS011;10808;48.010;11.326;2022-08-14T11:33:21;2.42;;;1.73;;
21297;SDS011;10808;48.010;11.326;2022-08-14T11:35:49;2.00;;;1.80;;
21297;SDS011;10808;48.010;11.326;2022-08-14T11:38:15;1.75;;;1.65;;
21297;SDS011;10808;48.010;11.326;2022-08-14T11:40:44;1.70;;;1.60;;
21297;SDS011;10808;48.010;11.326;2022-08-14T11:43:11;1.70;;;1.60;;
21297;SDS011;10808;48.010;11.326;2022-08-14T11:45:38;1.60;;;1.50;;
21297;SDS011;10808;48.010;11.326;2022-08-14T11:48:18;1.85;;;1.75;;
21297;SDS011;10808;48.010;11.326;2022-08-14T11:50:46;1.70;;;1.60;;
21297;SDS011;10808;48.010;11.326;2022-08-14T11:53:18;1.98;;;1.67;;
21297;SDS011;10808;48.010;11.326;2022-08-14T11:56:02;1.75;;;1.65;;
21297;SDS011;10808;48.010;11.326;2022-08-14T11:58:32;1.70;;;1.60;;
21297;SDS011;10808;48.010;11.326;2022-08-14T12:01:02;2.93;;;1.67;;
21297;SDS011;10808;48.010;11.326;2022-08-14T12:03:38;2.55;;;1.70;;
21297;SDS011;10808;48.010;11.326;2022-08-14T12:06:09;1.88;;;1.60;;
21297;SDS011;10808;48.010;11.326;2022-08-14T12:08:43;1.67;;;1.58;;
21297;SDS011;10808;48.010;11.326;2022-08-14T12:11:11;1.80;;;1.70;;
21297;SDS011;10808;48.010;11.326;2022-08-14T12:13:39;3.30;;;1.77;;
21297;SDS011;10808;48.010;11.326;2022-08-14T12:16:06;2.70;;;1.48;;
21297;SDS011;10808;48.010;11.326;2022-08-14T12:18:38;3.10;;;1.55;;
21297;SDS011;10808;48.010;11.326;2022-08-14T12:24:25;3.10;;;1.55;;
21297;SDS011;10808;48.010;11.326;2022-08-14T12:26:40;2.15;;;1.60;;
21297;SDS011;10808;48.010;11.326;2022-08-14T12:29:10;1.75;;;1.65;;
21297;SDS011;10808;48.010;11.326;2022-08-14T12:31:40;1.70;;;1.50;;
21297;SDS011;10808;48.010;11.326;2022-08-14T12:34:10;3.40;;;1.60;;
21297;SDS011;10808;48.010;11.326;2022-08-14T12:36:37;2.40;;;1.60;;
21297;SDS011;10808;48.010;11.326;2022-08-14T12:39:25;1.70;;;1.60;;
21297;SDS011;10808;48.010;11.326;2022-08-14T12:41:51;1.90;;;1.60;;
21297;SDS011;10808;48.010;11.326;2022-08-14T12:44:54;1.70;;;1.60;;
21297;SDS011;10808;48.010;11.326;2022-08-14T12:47:14;2.72;;;1.70;;
21297;SDS011;10808;48.010;11.326;2022-08-14T12:49:48;1.70;;;1.60;;
21297;SDS011;10808;48.010;11.326;2022-08-14T12:52:25;1.50;;;1.40;;
21297;SDS011;10808;48.010;11.326;2022-08-14T12:55:00;1.60;;;1.50;;
21297;SDS011;10808;48.010;11.326;2022-08-14T12:57:36;1.50;;;1.40;;
21297;SDS011;10808;48.010;11.326;2022-08-14T13:00:06;4.32;;;1.58;;
21297;SDS011;10808;48.010;11.326;2022-08-14T13:02:35;1.60;;;1.50;;
21297;SDS011;10808;48.010;11.326;2022-08-14T13:05:02;1.75;;;1.48;;
21297;SDS011;10808;48.010;11.326;2022-08-14T13:07:29;2.38;;;1.70;;
21297;SDS011;10808;48.010;11.326;2022-08-14T13:09:55;2.00;;;1.70;;
21297;SDS011;10808;48.010;11.326;2022-08-14T13:12:22;1.70;;;1.60;;
21297;SDS011;10808;48.010;11.326;2022-08-14T13:14:55;1.53;;;1.43;;
21297;SDS011;10808;48.010;11.326;2022-08-14T13:17:25;1.70;;;1.60;;
21297;SDS011;10808;48.010;11.326;2022-08-14T13:19:54;3.10;;;1.58;;
21297;SDS011;10808;48.010;11.326;2022-08-14T13:22:23;1.58;;;1.48;;
21297;SDS011;10808;48.010;11.326;2022-08-14T13:24:53;1.70;;;1.60;;
21297;SDS011;10808;48.010;11.326;2022-08-14T13:27:21;1.70;;;1.60;;
21297;SDS011;10808;48.010;11.326;2022-08-14T13:29:48;2.10;;;1.60;;
21297;SDS011;10808;48.010;11.326;2022-08-14T13:32:17;1.95;;;1.67;;
21297;SDS011;10808;48.010;11.326;2022-08-14T13:34:47;1.60;;;1.50;;
21297;SDS011;10808;48.010;11.326;2022-08-14T13:37:14;2.05;;;1.65;;
21297;SDS011;10808;48.010;11.326;2022-08-14T13:39:45;1.88;;;1.70;;
21297;SDS011;10808;48.010;11.326;2022-08-14T13:42:13;1.73;;;1.60;;
21297;SDS011;10808;48.010;11.326;2022-08-14T13:44:50;1.70;;;1.60;;
21297;SDS011;10808;48.010;11.326;2022-08-14T13:47:19;1.90;;;1.80;;
21297;SDS011;10808;48.010;11.326;2022-08-14T13:49:47;2.33;;;1.80;;
21297;SDS011;10808;48.010;11.326;2022-08-14T13:52:15;2.05;;;1.95;;
21297;SDS011;10808;48.010;11.326;2022-08-14T13:54:47;3.80;;;2.20;;
21297;SDS011;10808;48.010;11.326;2022-08-14T13:57:15;2.03;;;1.92;;
21297;SDS011;10808;48.010;11.326;2022-08-14T13:59:42;2.30;;;1.98;;
21297;SDS011;10808;48.010;11.326;2022-08-14T14:02:10;2.30;;;2.10;;
21297;SDS011;10808;48.010;11.326;2022-08-14T14:04:40;2.50;;;2.30;;
21297;SDS011;10808;48.010;11.326;2022-08-14T14:07:09;2.30;;;2.10;;
21297;SDS011;10808;48.010;11.326;2022-08-14T14:09:38;2.53;;;2.28;;
21297;SDS011;10808;48.010;11.326;2022-08-14T14:12:06;4.72;;;4.05;;
21297;SDS011;10808;48.010;11.326;2022-08-14T14:14:34;3.28;;;2.33;;
21297;SDS011;10808;48.010;11.326;2022-08-14T14:17:02;2.20;;;2.00;;
21297;SDS011;10808;48.010;11.326;2022-08-14T14:19:32;2.83;;;2.10;;
21297;SDS011;10808;48.010;11.326;2022-08-14T14:22:03;2.30;;;2.10;;
21297;SDS011;10808;48.010;11.326;2022-08-14T14:24:33;2.83;;;2.05;;
21297;SDS011;10808;48.010;11.326;2022-08-14T14:27:00;2.38;;;1.80;;
21297;SDS011;10808;48.010;11.326;2022-08-14T14:29:29;3.60;;;2.03;;
21297;SDS011;10808;48.010;11.326;2022-08-14T14:31:57;2.40;;;2.20;;
21297;SDS011;10808;48.010;11.326;2022-08-14T14:34:25;2.50;;;2.05;;
21297;SDS011;10808;48.010;11.326;2022-08-14T14:36:53;2.30;;;2.10;;
21297;SDS011;10808;48.010;11.326;2022-08-14T14:39:21;3.58;;;2.30;;
21297;SDS011;10808;48.010;11.326;2022-08-14T14:41:51;2.20;;;2.10;;
21297;SDS011;10808;48.010;11.326;2022-08-14T14:44:21;2.90;;;2.35;;
21297;SDS011;10808;48.010;11.326;2022-08-14T14:46:49;2.83;;;2.25;;
21297;SDS011;10808;48.010;11.326;2022-08-14T14:49:16;2.58;;;2.20;;
21297;SDS011;10808;48.010;11.326;2022-08-14T14:51:45;2.50;;;2.30;;
21297;SDS011;10808;48.010;11.326;2022-08-14T14:54:12;2.90;;;2.00;;
21297;SDS011;10808;48.010;11.326;2022-08-14T14:56:40;2.10;;;2.00;;
21297;SDS011;10808;48.010;11.326;2022-08-14T14:59:07;2.47;;;2.25;;
21297;SDS011;10808;48.010;11.326;2022-08-14T15:01:34;2.37;;;2.10;;
21297;SDS011;10808;48.010;11.326;2022-08-14T15:04:01;2.10;;;1.90;;